Pioneer Knutsen — LMIK — position and weather

sailwx.info

Track history (hours):
 
Tides and Currents Weather Stations Pressure Air Temp Water Temp Dewpoint Dewpoint Depression Visibility Wind Speed Wind Dir Waves Ship Positions

Pioneer Knutsen

Last reported at 2014-Aug-19 18:33 UTC. Time now 2014-Aug-20 16:38 UTC.
Position N 64°53' E 011°19'.

Length 70 m; draft 3.6 m.

Type: Tanker. MMSI: 259393000.

Date/timePositionNaut miles runAvg speedWind from/ knotsBaromVisibWave heightAir tempDewpointWater temp
2014-Aug-19 18:33N 64°53' E 011°19'21 1.1
2014-Aug-19 00:24N 65°09' E 011°50'1012.1
2014-Aug-18 23:33N 65°00' E 011°39'1212.2
2014-Aug-18 22:33N 64°52' E 011°17'316 8.9
2014-Aug-17 11:12N 60°27' E 005°01'6110.9
2014-Aug-17 05:33N 59°26' E 005°13'1212.2
2014-Aug-17 04:33N 59°15' E 005°21'1111.0
2014-Aug-17 03:33N 59°05' E 005°32'1010.0
2014-Aug-17 02:33N 58°55' E 005°35'0 0.0
2014-Aug-17 01:31N 58°55' E 005°35'0 0.0
2014-Aug-17 00:33N 58°55' E 005°35'0 0.0
2014-Aug-16 23:33N 58°55' E 005°35'0 0.0
2014-Aug-16 22:32N 58°55' E 005°35'0 0.0
2014-Aug-16 21:29N 58°55' E 005°35'0 0.0
2014-Aug-16 20:32N 58°55' E 005°35'0 0.0
2014-Aug-16 19:31N 58°55' E 005°35'0 0.0
2014-Aug-16 18:33N 58°55' E 005°35'1111.2
2014-Aug-16 17:33N 59°06' E 005°30'1311.1
2014-Aug-16 16:22N 59°19' E 005°20'911.6
2014-Aug-16 15:33N 59°27' E 005°13'4811.1
2014-Aug-16 11:16N 60°15' E 005°09'811.2
2014-Aug-16 10:33N 60°23' E 005°10'  
2014-Aug-14 00:08N 60°26' E 005°02'6211.2
2014-Aug-13 18:33N 59°24' E 005°16'1313.1
2014-Aug-13 17:33N 59°11' E 005°21'1111.5
2014-Aug-13 16:33N 59°02' E 005°33'6 6.1
2014-Aug-13 15:33N 58°55' E 005°35'0 0.0
2014-Aug-13 14:32N 58°55' E 005°35'0 0.0
2014-Aug-13 13:32N 58°55' E 005°35'0 0.0
2014-Aug-13 12:31N 58°55' E 005°35'0 0.0
2014-Aug-13 11:31N 58°55' E 005°35'0 0.0
2014-Aug-13 10:31N 58°55' E 005°35'0 0.0
2014-Aug-13 09:33N 58°55' E 005°35'0 0.0
2014-Aug-13 08:34N 58°55' E 005°35'5 4.7
2014-Aug-13 07:34N 59°00' E 005°33'5 4.7
2014-Aug-13 06:32N 59°02' E 005°42'0 0.0
2014-Aug-13 05:32N 59°02' E 005°41'0 0.0
2014-Aug-13 04:32N 59°02' E 005°41'0 0.0
2014-Aug-13 03:31N 59°02' E 005°41'0 0.0
2014-Aug-13 02:31N 59°02' E 005°41'0 0.0
2014-Aug-13 01:33N 59°02' E 005°41'0 0.0
2014-Aug-13 00:33N 59°02' E 005°41'0 0.0
2014-Aug-12 23:32N 59°02' E 005°41'0 0.0
2014-Aug-12 22:32N 59°02' E 005°42'0 0.0
2014-Aug-12 21:31N 59°02' E 005°41'0 0.0
2014-Aug-12 20:31N 59°02' E 005°42'0 0.0
2014-Aug-12 19:34N 59°02' E 005°41'0 0.0
2014-Aug-12 18:33N 59°02' E 005°41'0 0.0
2014-Aug-12 17:33N 59°02' E 005°41'0 0.0
2014-Aug-12 16:26N 59°02' E 005°41'0 0.0
2014-Aug-12 15:32N 59°02' E 005°42'0 0.0
2014-Aug-12 14:31N 59°02' E 005°42'0 0.0
2014-Aug-12 13:31N 59°02' E 005°42'0 0.0
2014-Aug-12 12:30N 59°02' E 005°42'0 0.0
2014-Aug-12 11:33N 59°02' E 005°42'0 0.0
2014-Aug-12 10:31N 59°02' E 005°42'0 0.0
2014-Aug-12 09:31N 59°02' E 005°42'0 0.0
2014-Aug-12 08:33N 59°02' E 005°42'0 0.0
2014-Aug-12 07:33N 59°02' E 005°42'0 0.0
2014-Aug-12 06:32N 59°02' E 005°42'0 0.0
2014-Aug-12 05:32N 59°02' E 005°42'0 0.0
2014-Aug-12 04:32N 59°02' E 005°42'5 4.8
2014-Aug-12 03:34N 59°00' E 005°33'4 4.2
2014-Aug-12 02:33N 58°56' E 005°34'1010.3
2014-Aug-12 01:33N 59°06' E 005°29'6 6.2
2014-Aug-12 00:33N 59°10' E 005°20'9 8.8
2014-Aug-11 23:33N 59°19' E 005°20'57 9.4
2014-Aug-11 17:30N 60°16' E 005°09'  
Track history (hours):
 
Tides and Currents Weather Stations Pressure Air Temp Water Temp Dewpoint Dewpoint Depression Visibility Wind Speed Wind Dir Waves Ship Positions

Pioneer Knutsen

Last reported at 2014-Aug-19 18:33 UTC. Time now 2014-Aug-20 16:38 UTC.
Position N 64°53' E 011°19'.

Length 70 m; draft 3.6 m.

Type: Tanker. MMSI: 259393000.

Date/timePositionNaut miles runAvg speedWind from/ knotsBaromVisibWave heightAir tempDewpointWater temp
2014-Aug-19 18:33N 64°53' E 011°19'21 1.1
2014-Aug-19 00:24N 65°09' E 011°50'1012.1
2014-Aug-18 23:33N 65°00' E 011°39'1212.2
2014-Aug-18 22:33N 64°52' E 011°17'316 8.9
2014-Aug-17 11:12N 60°27' E 005°01'6110.9
2014-Aug-17 05:33N 59°26' E 005°13'1212.2
2014-Aug-17 04:33N 59°15' E 005°21'1111.0
2014-Aug-17 03:33N 59°05' E 005°32'1010.0
2014-Aug-17 02:33N 58°55' E 005°35'0 0.0
2014-Aug-17 01:31N 58°55' E 005°35'0 0.0
2014-Aug-17 00:33N 58°55' E 005°35'0 0.0
2014-Aug-16 23:33N 58°55' E 005°35'0 0.0
2014-Aug-16 22:32N 58°55' E 005°35'0 0.0
2014-Aug-16 21:29N 58°55' E 005°35'0 0.0
2014-Aug-16 20:32N 58°55' E 005°35'0 0.0
2014-Aug-16 19:31N 58°55' E 005°35'0 0.0
2014-Aug-16 18:33N 58°55' E 005°35'1111.2
2014-Aug-16 17:33N 59°06' E 005°30'1311.1
2014-Aug-16 16:22N 59°19' E 005°20'911.6
2014-Aug-16 15:33N 59°27' E 005°13'4811.1
2014-Aug-16 11:16N 60°15' E 005°09'811.2
2014-Aug-16 10:33N 60°23' E 005°10'  
2014-Aug-14 00:08N 60°26' E 005°02'6211.2
2014-Aug-13 18:33N 59°24' E 005°16'1313.1
2014-Aug-13 17:33N 59°11' E 005°21'1111.5
2014-Aug-13 16:33N 59°02' E 005°33'6 6.1
2014-Aug-13 15:33N 58°55' E 005°35'0 0.0
2014-Aug-13 14:32N 58°55' E 005°35'0 0.0
2014-Aug-13 13:32N 58°55' E 005°35'0 0.0
2014-Aug-13 12:31N 58°55' E 005°35'0 0.0
2014-Aug-13 11:31N 58°55' E 005°35'0 0.0
2014-Aug-13 10:31N 58°55' E 005°35'0 0.0
2014-Aug-13 09:33N 58°55' E 005°35'0 0.0
2014-Aug-13 08:34N 58°55' E 005°35'5 4.7
2014-Aug-13 07:34N 59°00' E 005°33'5 4.7
2014-Aug-13 06:32N 59°02' E 005°42'0 0.0
2014-Aug-13 05:32N 59°02' E 005°41'0 0.0
2014-Aug-13 04:32N 59°02' E 005°41'0 0.0
2014-Aug-13 03:31N 59°02' E 005°41'0 0.0
2014-Aug-13 02:31N 59°02' E 005°41'0 0.0
2014-Aug-13 01:33N 59°02' E 005°41'0 0.0
2014-Aug-13 00:33N 59°02' E 005°41'0 0.0
2014-Aug-12 23:32N 59°02' E 005°41'0 0.0
2014-Aug-12 22:32N 59°02' E 005°42'0 0.0
2014-Aug-12 21:31N 59°02' E 005°41'0 0.0
2014-Aug-12 20:31N 59°02' E 005°42'0 0.0
2014-Aug-12 19:34N 59°02' E 005°41'0 0.0
2014-Aug-12 18:33N 59°02' E 005°41'0 0.0
2014-Aug-12 17:33N 59°02' E 005°41'0 0.0
2014-Aug-12 16:26N 59°02' E 005°41'0 0.0
2014-Aug-12 15:32N 59°02' E 005°42'0 0.0
2014-Aug-12 14:31N 59°02' E 005°42'0 0.0
2014-Aug-12 13:31N 59°02' E 005°42'0 0.0
2014-Aug-12 12:30N 59°02' E 005°42'0 0.0
2014-Aug-12 11:33N 59°02' E 005°42'0 0.0
2014-Aug-12 10:31N 59°02' E 005°42'0 0.0
2014-Aug-12 09:31N 59°02' E 005°42'0 0.0
2014-Aug-12 08:33N 59°02' E 005°42'0 0.0
2014-Aug-12 07:33N 59°02' E 005°42'0 0.0
2014-Aug-12 06:32N 59°02' E 005°42'0 0.0
2014-Aug-12 05:32N 59°02' E 005°42'0 0.0
2014-Aug-12 04:32N 59°02' E 005°42'5 4.8
2014-Aug-12 03:34N 59°00' E 005°33'4 4.2
2014-Aug-12 02:33N 58°56' E 005°34'1010.3
2014-Aug-12 01:33N 59°06' E 005°29'6 6.2
2014-Aug-12 00:33N 59°10' E 005°20'9 8.8
2014-Aug-11 23:33N 59°19' E 005°20'57 9.4
2014-Aug-11 17:30N 60°16' E 005°09'  

Dump ship's entire track history